Weather at Rambam Heliport

Public forecast

Using degrees Celsius for public forecast. Weather courtesy of forecast.io.

Closest aviation weather report (METAR) to Rambam Heliport

Closest report is Haifa International Airport, 3.3 nm (6.1 km) ESE. Retrieved 2020/10/31 14:50 UTC (55 minutes ago):

LLHA 311450Z 33009KT 9999 BKN027 26/19 Q1012

Closest aviation forecast (TAF) to Rambam Heliport

Closest forecast is Haifa International Airport, 3.3 nm (6.1 km) ESE. Retrieved 2020/10/31 12:00 UTC (4 hours ago):

TAF LLHA 311103Z 3112/0112 34012KT 9999 SCT030 BECMG 3115/3117 VRB03KT PROB40 3122/0107 35005KT -RA BKN025 BECMG 0107/0109 35010KT TX27/3112Z TN24/0104Z